createdAt,value
2018-10-12T00:02:26.577Z,15.80
2018-10-12T00:04:55.037Z,15.70
2018-10-12T00:07:23.553Z,15.70
2018-10-12T00:09:52.099Z,15.60
2018-10-12T00:12:20.583Z,15.60
2018-10-12T00:14:49.149Z,15.50
2018-10-12T00:17:17.661Z,15.60
2018-10-12T00:19:46.153Z,15.50
2018-10-12T00:22:14.686Z,15.50
2018-10-12T00:24:43.168Z,15.50
2018-10-12T00:27:11.676Z,15.50
2018-10-12T00:29:40.148Z,15.40
2018-10-12T00:32:08.685Z,15.40
2018-10-12T00:34:37.221Z,15.40
2018-10-12T00:37:05.874Z,15.40
2018-10-12T00:39:34.367Z,15.40
2018-10-12T00:42:02.861Z,15.30
2018-10-12T00:44:31.326Z,15.20
2018-10-12T00:46:59.887Z,15.10
2018-10-12T00:49:28.487Z,15.10
2018-10-12T00:51:57.055Z,15.00
2018-10-12T00:54:25.876Z,15.00
2018-10-12T00:56:54.383Z,14.90
2018-10-12T00:59:22.904Z,15.00
2018-10-12T01:01:51.425Z,15.00
2018-10-12T01:04:20.132Z,14.90
2018-10-12T01:06:48.691Z,14.80
2018-10-12T01:09:17.169Z,14.80
2018-10-12T01:11:45.918Z,14.80
2018-10-12T01:14:23.057Z,14.70
2018-10-12T01:16:51.546Z,14.60
2018-10-12T01:19:20.036Z,14.70
2018-10-12T01:21:48.710Z,14.70
2018-10-12T01:24:17.236Z,14.70
2018-10-12T01:26:45.817Z,14.50
2018-10-12T01:29:14.370Z,14.40
2018-10-12T01:31:42.897Z,14.40
2018-10-12T01:34:11.366Z,14.40
2018-10-12T01:36:39.885Z,14.50
2018-10-12T01:39:08.399Z,14.50
2018-10-12T01:41:36.922Z,14.40
2018-10-12T01:44:05.447Z,14.40
2018-10-12T01:46:33.922Z,14.40
2018-10-12T01:49:02.425Z,14.30
2018-10-12T01:51:30.921Z,14.20
2018-10-12T01:53:59.476Z,14.20
2018-10-12T01:56:27.992Z,14.30
2018-10-12T01:58:56.501Z,14.40
2018-10-12T02:01:25.014Z,14.50
2018-10-12T02:03:53.551Z,14.60
2018-10-12T02:06:22.036Z,14.50
2018-10-12T02:08:50.518Z,14.50
2018-10-12T02:11:19.029Z,14.50
2018-10-12T02:13:47.493Z,14.60
2018-10-12T02:16:15.976Z,14.60
2018-10-12T02:18:44.476Z,14.60
2018-10-12T02:21:13.043Z,14.60
2018-10-12T02:23:41.533Z,14.70
2018-10-12T02:26:10.017Z,14.70
2018-10-12T02:28:38.499Z,14.70
2018-10-12T02:31:07.072Z,14.70
2018-10-12T02:33:35.624Z,14.70
2018-10-12T02:36:04.095Z,14.70
2018-10-12T02:38:32.618Z,14.80
2018-10-12T02:41:01.149Z,14.80
2018-10-12T02:43:29.650Z,14.90
2018-10-12T02:45:58.149Z,14.80
2018-10-12T02:48:26.656Z,14.90
2018-10-12T02:50:55.122Z,14.90
2018-10-12T02:53:23.600Z,15.00
2018-10-12T02:55:52.110Z,14.90
2018-10-12T02:58:20.673Z,15.00
2018-10-12T03:00:49.170Z,15.00
2018-10-12T03:03:17.708Z,15.00
2018-10-12T03:05:46.258Z,15.00
2018-10-12T03:08:14.826Z,15.00
2018-10-12T03:10:43.375Z,15.00
2018-10-12T03:13:11.927Z,14.90
2018-10-12T03:15:40.397Z,14.90
2018-10-12T03:18:08.928Z,14.90
2018-10-12T03:20:37.355Z,14.90
2018-10-12T03:23:05.804Z,14.90
2018-10-12T03:25:34.304Z,14.90
2018-10-12T03:28:14.085Z,14.80
2018-10-12T03:30:42.685Z,14.80
2018-10-12T03:33:11.241Z,14.90
2018-10-12T03:35:39.781Z,14.80
2018-10-12T03:38:08.285Z,14.80
2018-10-12T03:40:36.786Z,14.80
2018-10-12T03:43:05.305Z,14.80
2018-10-12T03:45:33.793Z,14.80
2018-10-12T03:48:02.329Z,14.70
2018-10-12T03:50:30.866Z,14.80
2018-10-12T03:52:59.323Z,14.70
2018-10-12T03:55:27.841Z,14.70
2018-10-12T03:57:56.312Z,14.70
2018-10-12T04:00:24.809Z,14.70
2018-10-12T04:02:53.315Z,14.60
2018-10-12T04:05:21.834Z,14.60
2018-10-12T04:07:50.294Z,14.50
2018-10-12T04:10:18.769Z,14.50
2018-10-12T04:12:47.207Z,14.40
2018-10-12T04:15:15.669Z,14.50
2018-10-12T04:17:44.122Z,14.40
2018-10-12T04:20:12.618Z,14.40
2018-10-12T04:22:41.069Z,14.40
2018-10-12T04:25:09.622Z,14.40
2018-10-12T04:27:38.118Z,14.40
2018-10-12T04:30:07.054Z,14.40
2018-10-12T04:32:35.533Z,14.40
2018-10-12T04:35:04.034Z,14.40
2018-10-12T04:37:32.505Z,14.40
2018-10-12T04:41:12.552Z,14.40
2018-10-12T04:43:41.208Z,14.40
2018-10-12T04:46:12.214Z,14.40
2018-10-12T04:48:41.614Z,14.30
2018-10-12T04:51:13.151Z,14.30
2018-10-12T04:53:41.658Z,14.40
2018-10-12T04:56:10.827Z,14.40
2018-10-12T04:58:40.062Z,14.40
2018-10-12T05:01:08.633Z,14.40
2018-10-12T05:03:37.111Z,14.40
2018-10-12T05:06:06.260Z,14.30
2018-10-12T05:08:35.218Z,14.30
2018-10-12T05:11:03.757Z,14.20
2018-10-12T05:13:33.293Z,14.20
2018-10-12T05:16:02.340Z,14.20
2018-10-12T05:18:30.992Z,14.20
2018-10-12T05:21:00.325Z,14.20
2018-10-12T05:23:28.942Z,14.20
2018-10-12T05:25:57.460Z,14.20
2018-10-12T05:28:26.948Z,14.20
2018-10-12T05:30:55.525Z,14.20
2018-10-12T05:33:24.045Z,14.20
2018-10-12T05:35:52.554Z,14.10
2018-10-12T05:38:21.677Z,14.10
2018-10-12T05:40:50.201Z,14.10
2018-10-12T05:43:18.760Z,14.20
2018-10-12T05:45:47.760Z,14.20
2018-10-12T05:48:27.760Z,14.20
2018-10-12T05:50:56.838Z,14.20
2018-10-12T05:53:25.394Z,14.10
2018-10-12T05:55:53.967Z,14.10
2018-10-12T05:58:22.517Z,14.10
2018-10-12T06:00:51.382Z,14.20
2018-10-12T06:03:19.893Z,14.20
2018-10-12T06:05:48.347Z,14.30
2018-10-12T06:08:16.909Z,14.30
2018-10-12T06:10:45.389Z,14.30
2018-10-12T06:13:13.883Z,14.30
2018-10-12T06:15:42.428Z,14.30
2018-10-12T06:18:11.796Z,14.30
2018-10-12T06:20:40.282Z,14.30
2018-10-12T06:23:08.789Z,14.30
2018-10-12T06:25:37.627Z,14.40
2018-10-12T06:28:06.322Z,14.40
2018-10-12T06:30:34.833Z,14.40
2018-10-12T06:33:03.416Z,14.40
2018-10-12T06:35:31.820Z,14.50
2018-10-12T06:38:00.660Z,14.50
2018-10-12T06:40:29.576Z,14.60
2018-10-12T06:42:58.140Z,14.70
2018-10-12T06:45:26.622Z,14.60
2018-10-12T06:47:55.202Z,14.50
2018-10-12T06:50:23.692Z,14.60
2018-10-12T06:52:52.207Z,14.60
2018-10-12T06:55:20.712Z,14.70
2018-10-12T06:57:49.171Z,14.90
2018-10-12T07:00:17.673Z,15.00
2018-10-12T07:02:46.233Z,14.90
2018-10-12T07:05:14.707Z,15.00
2018-10-12T07:07:43.622Z,15.10
2018-10-12T07:10:12.083Z,15.30
2018-10-12T07:12:40.585Z,15.40
2018-10-12T07:15:09.409Z,15.50
2018-10-12T07:17:37.917Z,15.60
2018-10-12T07:20:06.429Z,15.60
2018-10-12T07:22:34.914Z,15.60
2018-10-12T07:25:03.370Z,15.70
2018-10-12T07:27:31.838Z,15.70
2018-10-12T07:30:00.320Z,15.90
2018-10-12T07:32:28.804Z,16.00
2018-10-12T07:34:57.289Z,16.00
2018-10-12T07:37:25.899Z,16.20
2018-10-12T07:39:54.373Z,16.20
2018-10-12T07:42:22.839Z,16.30
2018-10-12T07:44:51.337Z,16.30
2018-10-12T07:47:19.846Z,16.40
2018-10-12T07:49:48.275Z,16.40
2018-10-12T07:52:16.738Z,16.50
2018-10-12T07:54:45.214Z,16.70
2018-10-12T07:57:15.024Z,16.80
2018-10-12T07:59:44.441Z,16.80
2018-10-12T08:02:13.610Z,16.90
2018-10-12T08:04:42.634Z,17.00
2018-10-12T08:07:12.329Z,17.20
2018-10-12T08:09:40.969Z,17.20
2018-10-12T08:12:09.301Z,17.30
2018-10-12T08:14:37.829Z,17.40
2018-10-12T08:17:06.545Z,17.50
2018-10-12T08:19:35.059Z,17.60
2018-10-12T08:22:03.579Z,17.70
2018-10-12T08:24:32.063Z,17.80
2018-10-12T08:27:00.538Z,17.90
2018-10-12T08:29:29.077Z,17.90
2018-10-12T08:31:57.861Z,18.10
2018-10-12T08:34:26.325Z,18.20
2018-10-12T08:36:54.809Z,18.30
2018-10-12T08:39:23.282Z,18.40
2018-10-12T08:41:51.774Z,18.50
2018-10-12T08:44:20.225Z,18.70
2018-10-12T08:46:48.705Z,18.70
2018-10-12T08:49:17.170Z,18.80
2018-10-12T08:51:45.638Z,18.90
2018-10-12T08:54:14.106Z,19.00
2018-10-12T08:56:42.577Z,19.20
2018-10-12T08:59:11.070Z,19.30
2018-10-12T09:01:39.545Z,19.40
2018-10-12T09:04:08.030Z,19.50
2018-10-12T09:06:36.525Z,19.60
2018-10-12T09:09:07.986Z,19.70
2018-10-12T09:11:36.489Z,19.70
2018-10-12T09:14:05.010Z,19.80
2018-10-12T09:16:33.461Z,19.80
2018-10-12T09:19:01.946Z,19.90
2018-10-12T09:21:30.768Z,20.10
2018-10-12T09:23:59.234Z,20.20
2018-10-12T09:26:27.726Z,20.40
2018-10-12T09:28:56.227Z,20.40
2018-10-12T09:31:24.683Z,20.40
2018-10-12T09:33:53.188Z,20.50
2018-10-12T09:36:21.721Z,20.60
2018-10-12T09:38:50.203Z,20.80
2018-10-12T09:41:18.665Z,20.90
2018-10-12T09:43:47.207Z,20.90
2018-10-12T09:46:15.771Z,20.90
2018-10-12T09:48:44.235Z,21.00
2018-10-12T09:51:12.737Z,21.00
2018-10-12T09:53:41.215Z,20.90
2018-10-12T09:56:09.820Z,21.00
2018-10-12T09:58:38.352Z,21.10
2018-10-12T10:01:12.321Z,21.30
2018-10-12T10:03:46.121Z,21.30
2018-10-12T10:06:14.597Z,21.40
2018-10-12T10:08:43.147Z,21.60
2018-10-12T10:11:11.942Z,21.60
2018-10-12T10:13:40.514Z,21.70
2018-10-12T10:16:09.012Z,21.90
2018-10-12T10:18:37.541Z,21.90
2018-10-12T10:21:06.037Z,22.00
2018-10-12T10:23:34.541Z,22.10
2018-10-12T10:26:03.014Z,22.20
2018-10-12T10:28:31.478Z,22.30
2018-10-12T10:30:59.986Z,22.40
2018-10-12T10:33:28.448Z,22.40
2018-10-12T10:35:56.992Z,22.50
2018-10-12T10:38:25.505Z,22.50
2018-10-12T10:40:53.986Z,22.60
2018-10-12T10:43:23.012Z,22.80
2018-10-12T10:45:51.498Z,23.00
2018-10-12T10:48:19.998Z,22.90
2018-10-12T10:50:48.517Z,22.80
2018-10-12T10:53:17.019Z,22.90
2018-10-12T10:55:45.526Z,23.00
2018-10-12T10:58:13.987Z,23.00
2018-10-12T11:00:42.521Z,23.00
2018-10-12T11:03:10.926Z,23.00
2018-10-12T11:05:39.431Z,23.00
2018-10-12T11:08:08.121Z,23.20
2018-10-12T11:10:36.775Z,23.20
2018-10-12T11:13:05.313Z,23.30
2018-10-12T11:15:33.849Z,23.30
2018-10-12T11:18:02.308Z,23.40
2018-10-12T11:20:30.781Z,23.50
2018-10-12T11:22:59.304Z,23.50
2018-10-12T11:25:27.848Z,23.60
2018-10-12T11:27:56.342Z,23.50
2018-10-12T11:30:25.000Z,23.50
2018-10-12T11:32:53.544Z,23.60
2018-10-12T11:35:22.035Z,23.60
2018-10-12T11:37:50.509Z,23.60
2018-10-12T11:40:19.039Z,23.70
2018-10-12T11:42:58.834Z,23.70
2018-10-12T11:45:27.792Z,23.80
2018-10-12T11:47:56.144Z,23.70
2018-10-12T11:50:24.757Z,23.80
2018-10-12T11:52:53.254Z,23.90
2018-10-12T11:55:21.789Z,23.80
2018-10-12T11:57:50.250Z,23.80
2018-10-12T12:00:18.750Z,23.80
2018-10-12T12:02:47.884Z,23.90
2018-10-12T12:05:16.405Z,24.00
2018-10-12T12:07:44.910Z,24.00
2018-10-12T12:10:13.433Z,24.00
2018-10-12T12:12:41.989Z,24.00
2018-10-12T12:15:10.465Z,24.00
2018-10-12T12:17:38.965Z,23.90
2018-10-12T12:20:07.530Z,23.90
2018-10-12T12:22:36.046Z,23.90
2018-10-12T12:25:04.593Z,24.10
2018-10-12T12:27:33.091Z,24.20
2018-10-12T12:30:01.704Z,24.20
2018-10-12T12:32:30.321Z,24.20
2018-10-12T12:34:59.048Z,24.30
2018-10-12T12:37:27.724Z,24.30
2018-10-12T12:39:56.708Z,24.20
2018-10-12T12:42:25.369Z,24.30
2018-10-12T12:44:53.952Z,24.40
2018-10-12T12:47:22.593Z,24.30
2018-10-12T12:49:50.970Z,24.40
2018-10-12T12:52:19.472Z,24.40
2018-10-12T12:54:48.268Z,24.50
2018-10-12T12:57:17.108Z,24.50
2018-10-12T12:59:45.617Z,24.40
2018-10-12T13:02:14.098Z,24.30
2018-10-12T13:04:42.561Z,24.30
2018-10-12T13:07:11.079Z,24.30
2018-10-12T13:09:39.680Z,24.30
2018-10-12T13:12:08.179Z,24.40
2018-10-12T13:14:36.694Z,24.40
2018-10-12T13:17:05.194Z,24.60
2018-10-12T13:19:33.700Z,24.60
2018-10-12T13:22:02.241Z,24.60
2018-10-12T13:24:30.737Z,24.60
2018-10-12T13:26:59.254Z,24.60
2018-10-12T13:29:27.754Z,24.60
2018-10-12T13:31:56.354Z,24.60
2018-10-12T13:34:24.782Z,24.60
2018-10-12T13:36:53.375Z,24.80
2018-10-12T13:39:21.865Z,24.80
2018-10-12T13:41:50.425Z,24.60
2018-10-12T13:44:18.993Z,24.60
2018-10-12T13:46:47.545Z,24.60
2018-10-12T13:49:16.089Z,24.50
2018-10-12T13:51:44.686Z,24.60
2018-10-12T13:54:13.222Z,24.60
2018-10-12T13:56:41.861Z,24.50
2018-10-12T13:59:10.337Z,24.50
2018-10-12T14:01:38.885Z,24.50
2018-10-12T14:04:07.412Z,24.50
2018-10-12T14:06:35.926Z,24.40
2018-10-12T14:09:05.858Z,24.60
2018-10-12T14:11:34.341Z,24.70
2018-10-12T14:14:02.831Z,24.80
2018-10-12T14:16:31.330Z,24.70
2018-10-12T14:18:59.976Z,24.70
2018-10-12T14:21:28.353Z,24.60
2018-10-12T14:23:56.865Z,24.50
2018-10-12T14:26:25.355Z,24.00
2018-10-12T14:28:53.814Z,24.00
2018-10-12T14:31:22.358Z,23.70
2018-10-12T14:33:50.851Z,23.60
2018-10-12T14:36:19.309Z,24.10
2018-10-12T14:38:47.812Z,23.80
2018-10-12T14:41:16.284Z,23.50
2018-10-12T14:43:44.850Z,23.50
2018-10-12T14:46:13.274Z,23.40
2018-10-12T14:48:41.761Z,23.50
2018-10-12T14:51:10.229Z,23.50
2018-10-12T14:53:38.749Z,23.70
2018-10-12T14:56:07.255Z,23.80
2018-10-12T14:58:35.749Z,23.50
2018-10-12T15:01:04.233Z,23.60
2018-10-12T15:03:32.744Z,23.50
2018-10-12T15:06:01.203Z,23.40
2018-10-12T15:08:29.668Z,23.40
2018-10-12T15:10:58.122Z,23.60
2018-10-12T15:13:26.613Z,23.50
2018-10-12T15:15:55.109Z,23.50
2018-10-12T15:18:23.624Z,23.80
2018-10-12T15:20:52.157Z,23.60
2018-10-12T15:23:20.617Z,23.40
2018-10-12T15:25:49.145Z,23.40
2018-10-12T15:28:17.599Z,23.40
2018-10-12T15:30:46.093Z,23.30
2018-10-12T15:33:14.564Z,23.40
2018-10-12T15:35:43.080Z,23.30
2018-10-12T15:38:11.632Z,23.10
2018-10-12T15:40:40.387Z,23.00
2018-10-12T15:43:09.355Z,23.00
2018-10-12T15:45:37.838Z,23.20
2018-10-12T15:48:06.355Z,23.30
2018-10-12T15:50:38.455Z,23.20
2018-10-12T15:53:06.926Z,23.30
2018-10-12T15:55:35.460Z,23.20
2018-10-12T15:58:03.940Z,23.00
2018-10-12T16:00:32.474Z,23.00
2018-10-12T16:03:00.993Z,22.80
2018-10-12T16:05:29.483Z,22.80
2018-10-12T16:07:58.025Z,22.70
2018-10-12T16:10:26.617Z,22.60
2018-10-12T16:12:55.097Z,22.60
2018-10-12T16:15:23.742Z,22.40
2018-10-12T16:17:52.177Z,22.40
2018-10-12T16:20:20.673Z,22.30
2018-10-12T16:22:49.165Z,22.40
2018-10-12T16:26:00.401Z,22.30
2018-10-12T16:28:28.880Z,22.30
2018-10-12T16:30:57.800Z,22.20
2018-10-12T16:33:26.283Z,22.20
2018-10-12T16:35:56.115Z,22.10
2018-10-12T16:38:24.604Z,22.10
2018-10-12T16:40:53.130Z,21.90
2018-10-12T16:43:21.644Z,21.70
2018-10-12T16:45:50.936Z,21.60
2018-10-12T16:48:19.433Z,21.60
2018-10-12T16:50:47.937Z,21.60
2018-10-12T16:53:16.388Z,21.60
2018-10-12T16:55:44.872Z,21.50
2018-10-12T16:58:14.178Z,21.50
2018-10-12T17:00:42.936Z,21.50
2018-10-12T17:03:11.482Z,21.40
2018-10-12T17:05:40.007Z,21.30
2018-10-12T17:08:08.484Z,21.40
2018-10-12T17:10:37.060Z,21.30
2018-10-12T17:13:06.350Z,21.20
2018-10-12T17:15:34.855Z,21.20
2018-10-12T17:18:03.298Z,21.10
2018-10-12T17:20:31.798Z,21.10
2018-10-12T17:23:00.283Z,21.10
2018-10-12T17:25:28.770Z,21.10
2018-10-12T17:27:57.224Z,21.10
2018-10-12T17:30:25.813Z,21.10
2018-10-12T17:32:54.250Z,21.00
2018-10-12T17:35:22.794Z,20.90
2018-10-12T17:37:51.238Z,20.80
2018-10-12T17:40:19.737Z,20.70
2018-10-12T17:42:48.226Z,20.60
2018-10-12T17:45:16.750Z,20.60
2018-10-12T17:47:45.223Z,20.50
2018-10-12T17:50:13.731Z,20.50
2018-10-12T17:52:42.196Z,20.50
2018-10-12T17:55:10.729Z,20.40
2018-10-12T17:57:39.188Z,20.40
2018-10-12T18:00:09.083Z,20.40
2018-10-12T18:02:37.590Z,20.40
2018-10-12T18:05:06.378Z,20.30
2018-10-12T18:07:34.861Z,20.40
2018-10-12T18:10:03.412Z,20.20
2018-10-12T18:12:31.893Z,20.30
2018-10-12T18:15:00.405Z,20.30
2018-10-12T18:17:28.893Z,20.20
2018-10-12T18:19:57.345Z,20.20
2018-10-12T18:22:25.847Z,20.20
2018-10-12T18:24:54.333Z,20.10
2018-10-12T18:27:22.843Z,20.10
2018-10-12T18:29:51.312Z,20.10
2018-10-12T18:32:19.823Z,20.00
2018-10-12T18:34:48.337Z,20.00
2018-10-12T18:37:16.838Z,19.90
2018-10-12T18:39:45.305Z,19.80
2018-10-12T18:42:13.840Z,19.90
2018-10-12T18:44:42.353Z,19.80
2018-10-12T18:47:10.858Z,19.80
2018-10-12T18:49:39.329Z,19.80
2018-10-12T18:52:08.491Z,19.80
2018-10-12T18:54:36.990Z,19.70
2018-10-12T18:57:05.572Z,19.80
2018-10-12T18:59:34.050Z,19.90
2018-10-12T19:02:02.527Z,19.90
2018-10-12T19:04:31.329Z,19.90
2018-10-12T19:06:59.785Z,19.90
2018-10-12T19:09:28.268Z,19.80
2018-10-12T19:11:56.760Z,19.70
2018-10-12T19:14:25.225Z,19.60
2018-10-12T19:16:53.726Z,19.60
2018-10-12T19:19:22.220Z,19.50
2018-10-12T19:21:50.680Z,19.40
2018-10-12T19:24:19.136Z,19.40
2018-10-12T19:26:47.643Z,19.30
2018-10-12T19:29:16.116Z,19.20
2018-10-12T19:31:44.623Z,19.20
2018-10-12T19:34:13.113Z,19.00
2018-10-12T19:36:41.622Z,18.90
2018-10-12T19:39:10.643Z,18.90
2018-10-12T19:41:39.137Z,18.90
2018-10-12T19:44:08.236Z,18.80
2018-10-12T19:46:36.694Z,18.80
2018-10-12T19:49:05.403Z,18.70
2018-10-12T19:51:33.961Z,18.80
2018-10-12T19:54:02.427Z,18.80
2018-10-12T19:56:30.902Z,18.80
2018-10-12T19:58:59.400Z,18.80
2018-10-12T20:01:27.847Z,18.70
2018-10-12T20:03:56.298Z,18.60
2018-10-12T20:06:24.745Z,18.60
2018-10-12T20:08:53.190Z,18.60
2018-10-12T20:11:21.639Z,18.60
2018-10-12T20:13:50.145Z,18.60
2018-10-12T20:16:18.611Z,18.50
2018-10-12T20:18:47.120Z,18.50
2018-10-12T20:21:15.558Z,18.40
2018-10-12T20:23:44.030Z,18.40
2018-10-12T20:26:12.490Z,18.60
2018-10-12T20:28:40.969Z,18.40
2018-10-12T20:31:09.485Z,18.50
2018-10-12T20:33:37.941Z,18.50
2018-10-12T20:36:06.518Z,18.50
2018-10-12T20:38:34.993Z,18.40
2018-10-12T20:41:03.473Z,18.40
2018-10-12T20:43:31.957Z,18.30
2018-10-12T20:46:00.406Z,18.30
2018-10-12T20:48:28.863Z,18.20
2018-10-12T20:50:57.318Z,18.30
2018-10-12T20:53:25.797Z,18.30
2018-10-12T20:55:54.249Z,18.30
2018-10-12T20:58:22.729Z,18.20
2018-10-12T21:00:51.191Z,18.10
2018-10-12T21:03:19.736Z,18.10
2018-10-12T21:05:48.201Z,18.00
2018-10-12T21:08:16.717Z,17.90
2018-10-12T21:10:45.237Z,17.80
2018-10-12T21:13:13.717Z,17.80
2018-10-12T21:15:42.209Z,17.70
2018-10-12T21:18:10.664Z,17.70
2018-10-12T21:20:39.167Z,17.60
2018-10-12T21:23:07.728Z,17.60
2018-10-12T21:25:36.214Z,17.60
2018-10-12T21:28:04.708Z,17.50
2018-10-12T21:30:33.213Z,17.30
2018-10-12T21:33:01.666Z,17.30
2018-10-12T21:35:30.138Z,17.20
2018-10-12T21:37:58.602Z,17.20
2018-10-12T21:40:27.208Z,17.10
2018-10-12T21:42:55.533Z,17.10
2018-10-12T21:45:24.024Z,17.10
2018-10-12T21:47:52.476Z,17.00
2018-10-12T21:50:21.087Z,17.10
2018-10-12T21:52:49.521Z,17.10
2018-10-12T21:55:18.001Z,17.10
2018-10-12T21:57:46.445Z,17.00
2018-10-12T22:00:14.982Z,16.80
2018-10-12T22:02:43.474Z,16.70
2018-10-12T22:05:11.990Z,16.70
2018-10-12T22:07:40.499Z,16.60
2018-10-12T22:10:09.041Z,16.60
2018-10-12T22:12:37.502Z,16.60
2018-10-12T22:15:06.149Z,16.50
2018-10-12T22:17:34.621Z,16.50
2018-10-12T22:20:03.137Z,16.40
2018-10-12T22:22:31.657Z,16.40
2018-10-12T22:25:00.247Z,16.30
2018-10-12T22:27:28.744Z,16.20
2018-10-12T22:29:57.205Z,16.20
2018-10-12T22:32:25.660Z,16.20
2018-10-12T22:34:54.121Z,16.10
2018-10-12T22:37:22.628Z,16.10
2018-10-12T22:39:51.110Z,16.00
2018-10-12T22:42:19.546Z,16.00
2018-10-12T22:44:48.016Z,16.10
2018-10-12T22:47:16.473Z,16.10
2018-10-12T22:49:44.972Z,16.00
2018-10-12T22:52:13.437Z,16.00
2018-10-12T22:54:41.945Z,16.00
2018-10-12T22:57:10.417Z,16.00
2018-10-12T22:59:38.888Z,15.90
2018-10-12T23:02:07.361Z,15.90
2018-10-12T23:04:35.841Z,15.80
2018-10-12T23:07:04.291Z,15.80
2018-10-12T23:09:32.777Z,15.80
2018-10-12T23:12:01.241Z,15.80
2018-10-12T23:14:29.718Z,15.80
2018-10-12T23:16:58.186Z,15.80
2018-10-12T23:19:26.652Z,15.80
2018-10-12T23:21:55.186Z,15.80
2018-10-12T23:24:23.644Z,15.80
2018-10-12T23:26:52.124Z,15.80
2018-10-12T23:29:20.581Z,15.80
2018-10-12T23:31:49.036Z,15.80
2018-10-12T23:34:17.513Z,15.80
2018-10-12T23:36:45.993Z,15.70
2018-10-12T23:39:14.433Z,15.70
2018-10-12T23:41:42.899Z,15.70
2018-10-12T23:44:11.384Z,15.60
2018-10-12T23:46:39.861Z,15.60
2018-10-12T23:49:08.312Z,15.50
2018-10-12T23:51:36.775Z,15.50
2018-10-12T23:54:05.263Z,15.50
2018-10-12T23:56:33.757Z,15.40
2018-10-12T23:59:02.198Z,15.40
